createdAt,value
2018-01-14T00:00:07.213Z,16.73
2018-01-14T00:02:34.824Z,18.27
2018-01-14T00:05:03.183Z,16.95
2018-01-14T00:07:31.274Z,16.40
2018-01-14T00:09:59.654Z,17.80
2018-01-14T00:12:27.266Z,17.65
2018-01-14T00:14:55.163Z,19.48
2018-01-14T00:17:22.769Z,15.43
2018-01-14T00:19:50.664Z,17.70
2018-01-14T00:22:18.249Z,18.12
2018-01-14T00:24:45.862Z,17.75
2018-01-14T00:27:14.234Z,17.27
2018-01-14T00:29:41.867Z,16.50
2018-01-14T00:32:10.228Z,18.00
2018-01-14T00:34:37.856Z,18.80
2018-01-14T00:37:05.433Z,16.33
2018-01-14T00:39:36.511Z,16.35
2018-01-14T00:42:05.858Z,17.45
2018-01-14T00:44:33.446Z,17.30
2018-01-14T00:47:01.102Z,17.70
2018-01-14T00:49:28.707Z,17.05
2018-01-14T00:51:56.303Z,18.15
2018-01-14T00:54:23.915Z,16.70
2018-01-14T00:56:52.308Z,16.10
2018-01-14T00:59:20.717Z,17.85
2018-01-14T01:01:48.347Z,16.75
2018-01-14T01:04:17.953Z,17.30
2018-01-14T01:06:48.264Z,17.12
2018-01-14T01:09:16.909Z,16.85
2018-01-14T01:11:44.499Z,16.87
2018-01-14T01:14:12.136Z,17.02
2018-01-14T01:16:39.733Z,16.40
2018-01-14T01:19:07.592Z,16.48
2018-01-14T01:21:35.192Z,17.02
2018-01-14T01:24:03.167Z,17.60
2018-01-14T01:26:30.754Z,15.75
2018-01-14T01:28:59.155Z,15.70
2018-01-14T01:31:26.761Z,16.10
2018-01-14T01:33:54.374Z,16.37
2018-01-14T01:36:21.987Z,15.45
2018-01-14T01:38:49.652Z,15.52
2018-01-14T01:41:17.233Z,15.70
2018-01-14T01:43:44.859Z,15.00
2018-01-14T01:46:12.463Z,15.95
2018-01-14T01:48:40.043Z,17.00
2018-01-14T01:51:08.470Z,16.17
2018-01-14T01:53:36.070Z,14.23
2018-01-14T01:56:03.700Z,16.15
2018-01-14T01:58:31.289Z,16.12
2018-01-14T02:00:58.872Z,15.88
2018-01-14T02:03:26.641Z,16.35
2018-01-14T02:05:54.229Z,15.75
2018-01-14T02:08:22.620Z,16.25
2018-01-14T02:10:50.243Z,14.18
2018-01-14T02:13:17.869Z,18.30
2018-01-14T02:15:46.256Z,14.52
2018-01-14T02:18:13.855Z,16.48
2018-01-14T02:20:41.496Z,16.08
2018-01-14T02:23:09.100Z,15.13
2018-01-14T02:25:36.712Z,14.15
2018-01-14T02:28:05.086Z,14.23
2018-01-14T02:30:32.677Z,16.95
2018-01-14T02:33:00.278Z,17.45
2018-01-14T02:35:27.898Z,16.25
2018-01-14T02:37:56.294Z,17.17
2018-01-14T02:40:23.897Z,15.23
2018-01-14T02:42:51.609Z,15.93
2018-01-14T02:45:19.233Z,15.75
2018-01-14T02:47:46.864Z,14.75
2018-01-14T02:50:14.483Z,16.83
2018-01-14T02:52:42.092Z,15.75
2018-01-14T02:55:09.705Z,16.00
2018-01-14T02:57:37.333Z,15.65
2018-01-14T03:00:04.995Z,15.55
2018-01-14T03:02:32.873Z,15.38
2018-01-14T03:05:00.448Z,16.77
2018-01-14T03:07:29.089Z,14.77
2018-01-14T03:09:57.455Z,16.48
2018-01-14T03:12:25.064Z,14.35
2018-01-14T03:14:52.683Z,15.70
2018-01-14T03:17:20.274Z,13.27
2018-01-14T03:19:48.659Z,16.62
2018-01-14T03:22:17.011Z,17.83
2018-01-14T03:24:44.624Z,17.75
2018-01-14T03:27:14.440Z,14.87
2018-01-14T03:29:42.056Z,15.95
2018-01-14T03:32:09.664Z,13.30
2018-01-14T03:34:38.042Z,14.07
2018-01-14T03:37:06.423Z,14.30
2018-01-14T03:39:34.835Z,17.17
2018-01-14T03:42:02.409Z,16.27
2018-01-14T03:44:30.095Z,16.17
2018-01-14T03:46:57.699Z,15.85
2018-01-14T03:49:26.079Z,16.10
2018-01-14T03:51:54.431Z,15.98
2018-01-14T03:54:22.029Z,15.98
2018-01-14T03:56:50.445Z,16.10
2018-01-14T03:59:18.047Z,15.98
2018-01-14T04:01:45.726Z,14.95
2018-01-14T04:04:13.329Z,14.98
2018-01-14T04:06:41.737Z,15.43
2018-01-14T04:09:09.387Z,14.48
2018-01-14T04:11:37.023Z,15.20
2018-01-14T04:14:04.653Z,15.93
2018-01-14T04:16:32.249Z,14.98
2018-01-14T04:18:59.904Z,14.65
2018-01-14T04:21:27.528Z,15.43
2018-01-14T04:23:55.130Z,16.95
2018-01-14T04:26:22.787Z,14.32
2018-01-14T04:28:50.450Z,15.35
2018-01-14T04:31:18.069Z,17.08
2018-01-14T04:33:46.438Z,14.68
2018-01-14T04:36:15.898Z,14.32
2018-01-14T04:38:44.495Z,17.00
2018-01-14T04:41:12.091Z,14.87
2018-01-14T04:43:39.705Z,15.43
2018-01-14T04:46:08.402Z,15.63
2018-01-14T04:48:36.004Z,17.48
2018-01-14T04:51:04.576Z,16.70
2018-01-14T04:53:32.215Z,16.08
2018-01-14T04:55:59.807Z,16.73
2018-01-14T04:58:27.438Z,16.62
2018-01-14T05:00:55.057Z,15.70
2018-01-14T05:03:22.667Z,16.35
2018-01-14T05:05:50.297Z,17.25
2018-01-14T05:08:17.941Z,18.15
2018-01-14T05:10:45.527Z,16.42
2018-01-14T05:13:13.184Z,16.67
2018-01-14T05:15:40.793Z,16.33
2018-01-14T05:18:08.437Z,15.15
2018-01-14T05:20:36.819Z,17.00
2018-01-14T05:23:05.200Z,17.05
2018-01-14T05:25:32.794Z,16.65
2018-01-14T05:28:00.457Z,18.25
2018-01-14T05:30:28.055Z,16.50
2018-01-14T05:32:55.638Z,18.27
2018-01-14T05:35:23.277Z,17.60
2018-01-14T05:37:50.898Z,16.17
2018-01-14T05:40:19.278Z,15.90
2018-01-14T05:42:47.661Z,16.37
2018-01-14T05:45:15.281Z,16.42
2018-01-14T05:47:42.901Z,16.20
2018-01-14T05:50:10.540Z,16.08
2018-01-14T05:52:38.178Z,16.58
2018-01-14T05:55:06.531Z,16.58
2018-01-14T05:57:34.893Z,15.75
2018-01-14T06:00:03.331Z,16.05
2018-01-14T06:02:30.938Z,17.25
2018-01-14T06:04:58.573Z,16.75
2018-01-14T06:07:26.273Z,16.67
2018-01-14T06:09:54.124Z,16.37
2018-01-14T06:12:21.710Z,15.73
2018-01-14T06:14:49.324Z,16.73
2018-01-14T06:17:16.889Z,16.02
2018-01-14T06:19:44.532Z,16.12
2018-01-14T06:22:12.196Z,14.73
2018-01-14T06:24:40.555Z,14.73
2018-01-14T06:27:08.138Z,16.08
2018-01-14T06:29:36.529Z,16.17
2018-01-14T06:32:04.131Z,17.92
2018-01-14T06:34:31.741Z,15.93
2018-01-14T06:37:00.103Z,16.75
2018-01-14T06:39:28.070Z,16.77
2018-01-14T06:41:55.725Z,15.68
2018-01-14T06:44:23.351Z,16.00
2018-01-14T06:46:50.988Z,13.52
2018-01-14T06:49:18.610Z,14.98
2018-01-14T06:51:46.177Z,15.18
2018-01-14T06:54:13.799Z,12.80
2018-01-14T06:56:42.204Z,15.88
2018-01-14T06:59:09.814Z,14.80
2018-01-14T07:01:37.437Z,16.08
2018-01-14T07:04:05.073Z,15.80
2018-01-14T07:06:32.738Z,15.75
2018-01-14T07:09:01.130Z,14.63
2018-01-14T07:11:29.512Z,16.45
2018-01-14T07:13:58.916Z,14.90
2018-01-14T07:16:27.303Z,16.87
2018-01-14T07:18:55.658Z,15.95
2018-01-14T07:21:23.270Z,16.75
2018-01-14T07:23:50.878Z,17.30
2018-01-14T07:26:18.498Z,15.88
2018-01-14T07:28:46.136Z,15.05
2018-01-14T07:31:13.724Z,15.80
2018-01-14T07:33:42.080Z,18.10
2018-01-14T07:36:09.663Z,15.90
2018-01-14T07:38:38.033Z,15.27
2018-01-14T07:41:05.677Z,15.88
2018-01-14T07:43:33.298Z,14.23
2018-01-14T07:46:00.883Z,15.85
2018-01-14T07:48:28.478Z,15.13
2018-01-14T07:50:56.096Z,15.02
2018-01-14T07:53:23.672Z,16.15
2018-01-14T07:55:51.294Z,13.75
2018-01-14T07:58:19.680Z,13.95
2018-01-14T08:00:47.475Z,13.32
2018-01-14T08:03:15.277Z,14.15
2018-01-14T08:05:42.963Z,14.75
2018-01-14T08:08:11.535Z,15.40
2018-01-14T08:10:39.305Z,17.37
2018-01-14T08:13:07.132Z,14.48
2018-01-14T08:15:34.799Z,14.50
2018-01-14T08:18:02.493Z,16.55
2018-01-14T08:20:30.120Z,14.05
2018-01-14T08:22:58.619Z,13.70
2018-01-14T08:25:27.041Z,15.55
2018-01-14T08:27:54.796Z,14.35
2018-01-14T08:30:22.595Z,15.05
2018-01-14T08:32:50.209Z,12.60
2018-01-14T08:35:18.021Z,14.45
2018-01-14T08:37:45.662Z,13.30
2018-01-14T08:40:13.418Z,13.80
2018-01-14T08:42:41.056Z,15.63
2018-01-14T08:45:08.716Z,15.18
2018-01-14T08:47:37.220Z,14.30
2018-01-14T08:50:04.851Z,13.65
2018-01-14T08:52:32.442Z,15.32
2018-01-14T08:55:00.082Z,15.13
2018-01-14T08:57:28.216Z,14.30
2018-01-14T08:59:57.234Z,13.95
2018-01-14T09:02:24.830Z,14.00
2018-01-14T09:04:52.697Z,14.90
2018-01-14T09:07:20.522Z,13.50
2018-01-14T09:09:48.437Z,13.57
2018-01-14T09:12:16.058Z,12.85
2018-01-14T09:14:44.452Z,13.02
2018-01-14T09:17:12.042Z,13.35
2018-01-14T09:19:39.668Z,15.07
2018-01-14T09:22:08.717Z,12.02
2018-01-14T09:24:38.281Z,12.95
2018-01-14T09:27:06.287Z,12.82
2018-01-14T09:29:33.982Z,13.88
2018-01-14T09:32:01.593Z,13.30
2018-01-14T09:34:30.125Z,14.63
2018-01-14T09:36:57.914Z,11.60
2018-01-14T09:39:26.543Z,11.80
2018-01-14T09:41:54.134Z,10.90
2018-01-14T09:44:22.028Z,12.15
2018-01-14T09:46:50.422Z,12.90
2018-01-14T09:49:18.032Z,13.73
2018-01-14T09:51:45.610Z,13.88
2018-01-14T09:54:13.235Z,13.07
2018-01-14T09:56:42.078Z,14.45
2018-01-14T09:59:09.919Z,14.40
2018-01-14T10:01:37.567Z,14.43
2018-01-14T10:04:05.165Z,14.95
2018-01-14T10:06:32.756Z,13.18
2018-01-14T10:09:00.393Z,13.43
2018-01-14T10:11:28.040Z,13.00
2018-01-14T10:13:55.722Z,13.77
2018-01-14T10:16:24.134Z,13.30
2018-01-14T10:18:52.483Z,12.45
2018-01-14T10:21:20.849Z,12.37
2018-01-14T10:23:49.233Z,14.00
2018-01-14T10:26:17.592Z,14.05
2018-01-14T10:28:45.203Z,13.43
2018-01-14T10:31:13.560Z,15.00
2018-01-14T10:33:41.950Z,13.82
2018-01-14T10:36:10.329Z,11.90
2018-01-14T10:38:38.714Z,13.35
2018-01-14T10:41:07.359Z,13.05
2018-01-14T10:43:35.230Z,12.20
2018-01-14T10:46:04.836Z,12.18
2018-01-14T10:48:32.596Z,14.57
2018-01-14T10:51:01.414Z,12.98
2018-01-14T10:53:29.251Z,14.18
2018-01-14T10:55:57.311Z,12.07
2018-01-14T10:58:25.150Z,13.62
2018-01-14T11:00:58.834Z,15.02
2018-01-14T11:03:27.260Z,13.55
2018-01-14T11:05:55.820Z,13.27
2018-01-14T11:08:24.450Z,12.40
2018-01-14T11:10:52.336Z,13.07
2018-01-14T11:16:14.650Z,14.15
2018-01-14T11:18:46.220Z,13.57
2018-01-14T11:21:14.252Z,13.43
2018-01-14T11:23:42.238Z,11.20
2018-01-14T11:26:10.891Z,12.55
2018-01-14T11:28:41.928Z,12.32
2018-01-14T11:31:12.071Z,14.48
2018-01-14T11:33:44.840Z,13.23
2018-01-14T11:36:12.883Z,12.10
2018-01-14T11:38:41.280Z,11.90
2018-01-14T11:41:09.942Z,12.63
2018-01-14T11:43:37.587Z,12.57
2018-01-14T11:46:05.578Z,12.27
2018-01-14T11:48:33.956Z,10.95
2018-01-14T11:51:01.789Z,12.27
2018-01-14T11:53:30.405Z,11.07
2018-01-14T11:55:58.841Z,13.15
2018-01-14T11:58:26.703Z,12.85
2018-01-14T12:00:54.682Z,11.43
2018-01-14T12:03:22.690Z,10.48
2018-01-14T12:05:50.413Z,11.73
2018-01-14T12:08:37.284Z,10.93
2018-01-14T12:11:05.694Z,12.77
2018-01-14T12:13:34.089Z,12.00
2018-01-14T12:16:01.747Z,10.98
2018-01-14T12:18:30.158Z,10.98
2018-01-14T12:20:57.850Z,12.02
2018-01-14T12:23:25.506Z,12.65
2018-01-14T12:25:53.117Z,10.88
2018-01-14T12:28:20.748Z,13.35
2018-01-14T12:30:48.447Z,12.32
2018-01-14T12:33:16.860Z,12.00
2018-01-14T12:35:45.287Z,12.65
2018-01-14T12:38:12.872Z,10.70
2018-01-14T12:40:40.515Z,11.93
2018-01-14T12:43:08.115Z,11.55
2018-01-14T12:45:35.769Z,11.77
2018-01-14T12:48:03.533Z,11.05
2018-01-14T12:50:31.154Z,10.60
2018-01-14T12:52:58.785Z,11.80
2018-01-14T12:55:26.447Z,11.50
2018-01-14T12:57:54.070Z,11.27
2018-01-14T13:00:21.728Z,11.48
2018-01-14T13:02:49.338Z,11.73
2018-01-14T13:05:16.976Z,11.80
2018-01-14T13:07:44.589Z,10.93
2018-01-14T13:10:12.237Z,10.88
2018-01-14T13:12:39.865Z,11.30
2018-01-14T13:15:07.506Z,12.02
2018-01-14T13:17:35.861Z,11.38
2018-01-14T13:20:03.474Z,11.35
2018-01-14T13:22:31.147Z,12.10
2018-01-14T13:24:58.764Z,11.05
2018-01-14T13:27:26.434Z,10.30
2018-01-14T13:29:54.119Z,11.65
2018-01-14T13:32:22.521Z,10.50
2018-01-14T13:34:50.137Z,10.60
2018-01-14T13:37:17.752Z,11.45
2018-01-14T13:39:45.352Z,12.25
2018-01-14T13:42:13.007Z,12.32
2018-01-14T13:44:40.641Z,11.60
2018-01-14T13:47:08.295Z,11.93
2018-01-14T13:49:35.952Z,11.00
2018-01-14T13:52:03.540Z,12.90
2018-01-14T13:54:32.082Z,11.88
2018-01-14T13:56:59.680Z,13.05
2018-01-14T13:59:28.096Z,12.37
2018-01-14T14:01:55.783Z,12.52
2018-01-14T14:04:23.499Z,12.30
2018-01-14T14:06:51.186Z,13.48
2018-01-14T14:09:18.922Z,12.55
2018-01-14T14:11:47.452Z,12.82
2018-01-14T14:14:15.080Z,13.40
2018-01-14T14:16:43.466Z,12.35
2018-01-14T14:19:11.849Z,12.68
2018-01-14T14:21:39.498Z,12.13
2018-01-14T14:24:07.124Z,12.60
2018-01-14T14:26:34.743Z,12.77
2018-01-14T14:29:02.384Z,12.82
2018-01-14T14:31:30.014Z,12.88
2018-01-14T14:33:57.616Z,12.95
2018-01-14T14:36:25.214Z,11.20
2018-01-14T14:38:53.624Z,12.40
2018-01-14T14:41:21.261Z,12.55
2018-01-14T14:43:49.662Z,11.55
2018-01-14T14:46:17.336Z,12.63
2018-01-14T14:48:45.285Z,13.32
2018-01-14T14:51:13.694Z,13.00
2018-01-14T14:53:42.327Z,13.55
2018-01-14T14:56:10.195Z,11.50
2018-01-14T14:58:39.717Z,15.05
2018-01-14T15:01:07.440Z,11.48
2018-01-14T15:03:35.087Z,12.00
2018-01-14T15:06:03.802Z,13.27
2018-01-14T15:08:31.651Z,11.38
2018-01-14T15:10:59.412Z,12.00
2018-01-14T15:13:51.806Z,10.93
2018-01-14T15:16:21.687Z,11.75
2018-01-14T15:18:49.300Z,13.60
2018-01-14T15:21:16.936Z,11.50
2018-01-14T15:23:44.575Z,12.27
2018-01-14T15:26:12.308Z,11.63
2018-01-14T15:28:39.918Z,11.43
2018-01-14T15:31:08.545Z,11.65
2018-01-14T15:33:36.128Z,12.02
2018-01-14T15:36:03.746Z,13.30
2018-01-14T15:38:31.366Z,10.48
2018-01-14T15:41:00.755Z,11.48
2018-01-14T15:43:28.409Z,10.43
2018-01-14T15:45:57.117Z,10.93
2018-01-14T15:48:24.907Z,11.45
2018-01-14T15:50:53.313Z,11.45
2018-01-14T15:53:20.969Z,11.68
2018-01-14T15:55:49.111Z,11.35
2018-01-14T15:58:17.766Z,11.35
2018-01-14T16:00:46.564Z,12.37
2018-01-14T16:03:14.178Z,12.13
2018-01-14T16:05:42.554Z,12.77
2018-01-14T16:08:11.460Z,12.50
2018-01-14T16:10:39.431Z,12.95
2018-01-14T16:13:07.456Z,12.13
2018-01-14T16:15:35.415Z,14.07
2018-01-14T16:18:03.364Z,12.35
2018-01-14T16:20:31.499Z,12.30
2018-01-14T16:23:03.289Z,12.30
2018-01-14T16:25:30.875Z,12.35
2018-01-14T16:27:59.475Z,14.98
2018-01-14T16:30:27.754Z,11.95
2018-01-14T16:32:56.826Z,12.05
2018-01-14T16:35:25.216Z,12.57
2018-01-14T16:37:53.632Z,11.90
2018-01-14T16:40:22.178Z,12.98
2018-01-14T16:42:50.781Z,11.93
2018-01-14T16:45:18.503Z,12.02
2018-01-14T16:47:47.374Z,13.15
2018-01-14T16:50:14.986Z,12.20
2018-01-14T16:52:42.604Z,12.02
2018-01-14T16:55:10.503Z,11.70
2018-01-14T16:57:38.472Z,12.60
2018-01-14T17:00:06.397Z,12.68
2018-01-14T17:02:34.876Z,12.35
2018-01-14T17:05:04.381Z,12.93
2018-01-14T17:07:32.206Z,12.43
2018-01-14T17:10:01.372Z,12.43
2018-01-14T17:12:29.030Z,12.68
2018-01-14T17:14:57.642Z,11.93
2018-01-14T17:17:25.334Z,13.25
2018-01-14T17:19:53.213Z,11.75
2018-01-14T17:22:22.166Z,13.65
2018-01-14T17:24:49.843Z,12.15
2018-01-14T17:27:17.484Z,12.57
2018-01-14T17:29:46.972Z,12.85
2018-01-14T17:32:15.410Z,12.57
2018-01-14T17:34:43.695Z,13.32
2018-01-14T17:37:13.062Z,12.70
2018-01-14T17:39:40.817Z,13.52
2018-01-14T17:42:08.511Z,13.52
2018-01-14T17:44:37.478Z,13.45
2018-01-14T17:47:05.550Z,17.70
2018-01-14T17:49:33.308Z,16.90
2018-01-14T17:52:00.963Z,14.90
2018-01-14T17:54:28.559Z,17.25
2018-01-14T17:56:56.663Z,17.65
2018-01-14T17:59:24.349Z,15.88
2018-01-14T18:01:52.045Z,15.20
2018-01-14T18:04:19.660Z,15.98
2018-01-14T18:06:48.495Z,17.27
2018-01-14T18:09:16.402Z,16.27
2018-01-14T18:11:44.031Z,16.52
2018-01-14T18:14:11.807Z,18.65
2018-01-14T21:33:57.060Z,12.32
2018-01-14T21:36:24.725Z,12.00
2018-01-14T21:38:53.646Z,12.93
2018-01-14T21:41:21.301Z,12.23
2018-01-14T21:43:48.957Z,12.98
2018-01-14T21:46:16.571Z,13.75
2018-01-14T21:48:44.192Z,12.63
2018-01-14T21:51:11.856Z,13.32
2018-01-14T21:53:39.469Z,11.27
2018-01-14T21:56:07.071Z,13.30
2018-01-14T21:58:35.468Z,12.77
2018-01-14T22:01:03.093Z,11.77
2018-01-14T22:03:30.739Z,11.52
2018-01-14T22:05:58.364Z,13.25
2018-01-14T22:08:26.766Z,12.93
2018-01-14T22:10:54.555Z,11.05
2018-01-14T22:13:22.201Z,13.43
2018-01-14T22:15:49.831Z,14.07
2018-01-14T22:18:17.771Z,12.43
2018-01-14T22:20:46.218Z,12.20
2018-01-14T22:23:13.855Z,13.13
2018-01-14T22:25:42.962Z,12.68
2018-01-14T22:28:11.308Z,12.27
2018-01-14T22:30:38.988Z,12.35
2018-01-14T22:33:06.836Z,13.43
2018-01-14T22:35:34.555Z,12.57
2018-01-14T22:38:03.001Z,12.90
2018-01-14T22:40:30.622Z,13.00
2018-01-14T22:42:58.290Z,13.52
2018-01-14T22:45:25.942Z,12.65
2018-01-14T22:47:54.388Z,15.30
2018-01-14T22:50:22.654Z,14.25
2018-01-14T22:52:50.823Z,13.80
2018-01-14T22:55:19.136Z,15.13
2018-01-14T22:57:46.774Z,14.00
2018-01-14T23:00:14.439Z,13.65
2018-01-14T23:02:42.055Z,14.15
2018-01-14T23:05:10.112Z,13.10
2018-01-14T23:07:37.759Z,12.32
2018-01-14T23:10:05.365Z,14.43
2018-01-14T23:12:33.799Z,16.08
2018-01-14T23:15:07.140Z,16.48
2018-01-14T23:17:34.787Z,15.25
2018-01-14T23:20:02.399Z,16.12
2018-01-14T23:22:30.054Z,17.12
2018-01-14T23:24:58.450Z,16.77
2018-01-14T23:27:26.803Z,16.25
2018-01-14T23:29:54.408Z,18.55
2018-01-14T23:32:22.046Z,17.17
2018-01-14T23:34:55.433Z,16.40
2018-01-14T23:37:23.066Z,18.75
2018-01-14T23:39:50.647Z,16.58
2018-01-14T23:42:18.252Z,17.35
2018-01-14T23:44:46.663Z,18.23
2018-01-14T23:47:15.038Z,17.20
2018-01-14T23:49:42.656Z,18.10
2018-01-14T23:52:10.287Z,17.67
2018-01-14T23:54:37.902Z,17.90
2018-01-14T23:57:06.303Z,20.10
2018-01-14T23:59:33.956Z,18.52
